Time;durP1;ratioP1;P1;durP2;ratioP2;P2;SDS_P1;SDS_P2;PMS_P1;PMS_P2;Temp;Humidity;BMP_temperature;BMP_pressure;BME280_temperature;BME280_humidity;BME280_pressure;Samples;Min_cycle;Max_cycle;Signal;HPM_P1;HPM_P2
2021/12/10 00:01:48;;;;;;;52.33;7.35;;;10.10;99.90;;;;;;4997554;28;20108;-81
2021/12/10 00:04:20;;;;;;;53.88;8.05;;;10.00;99.90;;;;;;4996664;28;20050;-79
2021/12/10 00:06:53;;;;;;;60.03;8.15;;;10.00;99.90;;;;;;5004794;28;20434;-79
2021/12/10 00:09:33;;;;;;;60.47;8.32;;;10.00;99.90;;;;;;5006961;28;20054;-84
2021/12/10 00:12:11;;;;;;;47.38;6.68;;;9.90;99.90;;;;;;5000365;28;20050;-79
2021/12/10 00:14:38;;;;;;;63.15;7.72;;;9.90;99.90;;;;;;5003182;28;20050;-81
2021/12/10 00:17:08;;;;;;;69.35;8.90;;;9.80;99.90;;;;;;4992329;28;20058;-80
2021/12/10 00:19:42;;;;;;;48.97;7.22;;;9.90;99.90;;;;;;4987029;28;20093;-86
2021/12/10 00:22:20;;;;;;;59.72;8.68;;;9.90;99.90;;;;;;4984645;28;20134;-87
2021/12/10 00:24:50;;;;;;;59.22;7.53;;;9.90;99.90;;;;;;4993708;28;20489;-84
2021/12/10 00:27:27;;;;;;;48.22;7.28;;;9.90;99.90;;;;;;4984046;28;20387;-79
2021/12/10 00:30:02;;;;;;;;;;;10.00;99.90;;;;;;4984923;28;20046;-80
2021/12/10 00:32:34;;;;;;;54.08;7.35;;;10.10;99.90;;;;;;4983785;28;19944;-80
2021/12/10 00:35:07;;;;;;;64.43;8.25;;;10.10;99.90;;;;;;4972378;28;20560;-80
2021/12/10 00:37:35;;;;;;;53.42;7.47;;;10.10;99.90;;;;;;4972651;28;20408;-80
2021/12/10 00:40:07;;;;;;;47.65;7.75;;;10.10;99.90;;;;;;4982597;28;20097;-80
2021/12/10 00:42:35;;;;;;;54.50;6.57;;;9.90;99.90;;;;;;4980670;28;20517;-80
2021/12/10 00:45:05;;;;;;;52.72;8.07;;;9.80;99.90;;;;;;4984337;28;20050;-80
2021/12/10 00:47:32;;;;;;;52.97;6.93;;;9.80;99.90;;;;;;4985225;28;20074;-82
2021/12/10 00:49:59;;;;;;;51.42;6.82;;;9.80;99.90;;;;;;4976423;28;20050;-80
2021/12/10 00:52:27;;;;;;;63.30;8.95;;;9.80;99.90;;;;;;4996293;28;20502;-80
2021/12/10 00:54:54;;;;;;;52.65;7.72;;;9.80;99.90;;;;;;4968764;28;20573;-80
2021/12/10 00:57:21;;;;;;;51.03;6.75;;;9.80;99.90;;;;;;4961638;28;20498;-79
2021/12/10 00:59:50;;;;;;;54.75;8.07;;;9.80;99.90;;;;;;4976862;28;20047;-81
2021/12/10 01:02:21;;;;;;;58.17;8.20;;;9.70;99.90;;;;;;4975163;28;20054;-80
2021/12/10 01:04:51;;;;;;;45.88;7.72;;;9.80;99.90;;;;;;4975627;28;20082;-80
2021/12/10 01:07:20;;;;;;;59.88;7.43;;;9.70;99.90;;;;;;4977277;28;20102;-80
2021/12/10 01:09:50;;;;;;;32.70;5.22;;;9.70;99.90;;;;;;4974056;28;20419;-82
2021/12/10 01:12:28;;;;;;;41.33;5.03;;;9.70;99.90;;;;;;4992408;28;20494;-80
2021/12/10 01:28:37;;;;;;;42.70;6.03;;;10.00;99.90;;;;;;5015636;28;20054;-78
2021/12/10 01:31:04;;;;;;;45.63;7.55;;;10.00;99.90;;;;;;5006450;28;20057;-79
2021/12/10 01:33:32;;;;;;;53.85;6.65;;;9.90;99.90;;;;;;4997162;28;20056;-80
2021/12/10 01:36:00;;;;;;;45.35;6.00;;;9.90;99.90;;;;;;5019780;28;20053;-79
2021/12/10 01:38:27;;;;;;;44.47;5.97;;;9.90;99.90;;;;;;5001667;28;20046;-80
2021/12/10 01:40:58;;;;;;;44.78;6.50;;;9.90;99.90;;;;;;4998589;28;20552;-80
2021/12/10 01:43:26;;;;;;;55.97;6.95;;;9.90;99.90;;;;;;5004265;28;20064;-79
2021/12/10 01:46:05;;;;;;;53.40;7.97;;;9.80;99.90;;;;;;5003982;28;20142;-80
2021/12/10 01:48:42;;;;;;;52.47;6.85;;;9.60;99.90;;;;;;5005464;28;20493;-79
2021/12/10 01:51:13;;;;;;;45.25;6.63;;;9.60;99.90;;;;;;5002855;28;20077;-79
2021/12/10 01:53:42;;;;;;;43.15;5.90;;;9.70;99.90;;;;;;5001791;28;20057;-79
2021/12/10 01:56:15;;;;;;;47.22;5.97;;;9.70;99.90;;;;;;4998469;28;20058;-79
2021/12/10 01:58:42;;;;;;;43.17;5.57;;;9.70;99.90;;;;;;4998296;28;20050;-79
2021/12/10 02:01:15;;;;;;;33.53;5.18;;;9.80;99.90;;;;;;4997992;28;20043;-81
2021/12/10 02:03:45;;;;;;;44.63;6.05;;;9.90;99.90;;;;;;5003927;28;20536;-79
2021/12/10 02:06:13;;;;;;;55.58;7.75;;;10.00;99.90;;;;;;4997501;28;20042;-79
2021/12/10 02:08:41;;;;;;;42.22;6.13;;;9.90;99.90;;;;;;5003416;28;20042;-79
2021/12/10 02:11:09;;;;;;;51.35;6.97;;;9.90;99.90;;;;;;5001694;28;20057;-79
2021/12/10 02:13:37;;;;;;;45.83;6.38;;;9.90;99.90;;;;;;5005702;28;20054;-82
2021/12/10 02:16:05;;;;;;;44.95;6.38;;;9.90;99.90;;;;;;4997789;28;20053;-78
2021/12/10 02:18:32;;;;;;;46.75;5.70;;;9.70;99.90;;;;;;4997170;28;20104;-79
2021/12/10 02:21:03;;;;;;;44.42;5.80;;;9.70;99.90;;;;;;5000060;28;20051;-79
2021/12/10 02:23:33;;;;;;;44.60;6.43;;;9.70;99.90;;;;;;5005305;28;20567;-79
2021/12/10 02:26:01;;;;;;;41.67;6.80;;;9.80;99.90;;;;;;4992231;28;20775;-79
2021/12/10 02:28:29;;;;;;;38.83;6.20;;;9.70;99.90;;;;;;4999054;28;20042;-80
2021/12/10 02:30:56;;;;;;;38.45;5.05;;;9.70;99.90;;;;;;5003319;28;20050;-79
2021/12/10 02:33:23;;;;;;;45.53;6.35;;;9.80;99.90;;;;;;4999775;28;20634;-78
2021/12/10 02:35:50;;;;;;;32.70;4.78;;;9.80;99.90;;;;;;5000959;28;20042;-83
2021/12/10 02:38:19;;;;;;;42.33;6.43;;;9.70;99.90;;;;;;5005403;28;20050;-79
2021/12/10 02:40:49;;;;;;;45.13;6.43;;;9.70;99.90;;;;;;5002832;28;20129;-80
2021/12/10 02:43:19;;;;;;;44.05;6.18;;;9.60;99.90;;;;;;4997308;28;20050;-79
2021/12/10 02:45:54;;;;;;;40.30;5.82;;;9.60;99.90;;;;;;5012103;28;20514;-79
2021/12/10 02:48:22;;;;;;;50.63;7.50;;;9.60;99.90;;;;;;5013992;28;20057;-78
2021/12/10 02:50:49;;;;;;;40.92;5.78;;;9.60;99.90;;;;;;5000737;28;20112;-80
2021/12/10 02:53:22;;;;;;;49.17;7.55;;;9.70;99.90;;;;;;5006304;28;20041;-79
2021/12/10 02:55:49;;;;;;;45.25;6.78;;;9.70;99.90;;;;;;4995135;28;20061;-79
2021/12/10 02:58:16;;;;;;;45.50;4.78;;;9.70;99.90;;;;;;5002791;28;20046;-80
2021/12/10 03:00:54;;;;;;;49.03;7.25;;;9.70;99.90;;;;;;5014240;28;20088;-79
2021/12/10 03:03:22;;;;;;;40.70;5.97;;;9.60;99.90;;;;;;5009408;28;20048;-79
2021/12/10 03:05:50;;;;;;;50.17;7.15;;;9.70;99.90;;;;;;4997307;28;20058;-79
2021/12/10 03:08:18;;;;;;;51.15;8.40;;;9.80;99.90;;;;;;5003782;28;20062;-79
2021/12/10 03:10:46;;;;;;;29.00;5.35;;;9.80;99.90;;;;;;5004503;28;20053;-81
2021/12/10 03:13:13;;;;;;;47.55;6.05;;;9.60;99.90;;;;;;4997893;28;20101;-78
2021/12/10 03:15:41;;;;;;;66.53;7.65;;;9.00;99.90;;;;;;5007018;28;20050;-79
2021/12/10 03:18:14;;;;;;;38.50;6.47;;;8.40;99.90;;;;;;5003915;28;20061;-79
2021/12/10 03:20:41;;;;;;;28.63;4.05;;;8.20;99.90;;;;;;5000796;28;20038;-78
2021/12/10 03:23:11;;;;;;;30.40;3.53;;;8.00;99.90;;;;;;4999164;28;20054;-78
2021/12/10 03:25:38;;;;;;;25.10;4.22;;;8.00;99.90;;;;;;5005035;28;20042;-78
2021/12/10 03:28:05;;;;;;;21.08;3.17;;;8.20;99.90;;;;;;4985560;28;20548;-78
2021/12/10 03:30:38;;;;;;;23.90;3.63;;;8.30;99.90;;;;;;4997696;28;20092;-78
2021/12/10 03:33:05;;;;;;;43.65;4.57;;;8.30;99.90;;;;;;5003242;28;20054;-79
2021/12/10 03:35:41;;;;;;;26.45;4.20;;;8.30;99.90;;;;;;4993554;28;20046;-79
2021/12/10 03:38:11;;;;;;;48.03;6.38;;;8.50;99.90;;;;;;5010222;28;20120;-79
2021/12/10 03:40:39;;;;;;;34.80;4.82;;;8.60;99.90;;;;;;5001815;28;20101;-80
2021/12/10 03:43:08;;;;;;;33.85;5.10;;;8.70;99.90;;;;;;4999558;28;20077;-79
2021/12/10 03:45:40;;;;;;;33.55;4.95;;;8.70;99.90;;;;;;5003549;28;20119;-80
2021/12/10 03:48:14;;;;;;;52.83;6.93;;;8.90;99.90;;;;;;5003907;28;20046;-80
2021/12/10 03:50:42;;;;;;;38.08;6.63;;;8.90;99.90;;;;;;5001106;28;20053;-77
2021/12/10 03:53:10;;;;;;;32.88;6.00;;;9.10;99.90;;;;;;5006517;28;20105;-78
2021/12/10 03:55:38;;;;;;;47.88;5.90;;;9.20;99.90;;;;;;5013368;28;20107;-79
2021/12/10 03:58:05;;;;;;;34.75;5.28;;;9.30;99.90;;;;;;4990811;28;20042;-78
2021/12/10 04:00:35;;;;;;;40.60;5.93;;;9.30;99.90;;;;;;4999029;28;20426;-79
2021/12/10 04:03:02;;;;;;;42.00;4.03;;;9.40;99.90;;;;;;4995462;28;20049;-79
2021/12/10 04:05:30;;;;;;;33.92;5.72;;;9.30;99.90;;;;;;4996140;28;20053;-80
2021/12/10 04:07:57;;;;;;;36.60;5.38;;;9.40;99.90;;;;;;5004943;28;20045;-80
2021/12/10 04:10:25;;;;;;;31.08;4.70;;;9.30;99.90;;;;;;4998550;28;20716;-80
2021/12/10 04:12:52;;;;;;;25.75;3.67;;;9.30;99.90;;;;;;5011740;28;20118;-81
2021/12/10 04:15:22;;;;;;;29.13;4.03;;;9.20;99.90;;;;;;5003961;28;20518;-80
2021/12/10 04:17:52;;;;;;;24.77;3.00;;;9.00;99.90;;;;;;4994968;28;20085;-80
2021/12/10 04:20:21;;;;;;;29.15;3.75;;;8.70;99.90;;;;;;5004840;28;20082;-80
2021/12/10 04:22:48;;;;;;;14.77;2.80;;;8.50;99.90;;;;;;5004798;28;20073;-80
2021/12/10 04:25:19;;;;;;;19.10;2.95;;;8.50;99.90;;;;;;4997871;28;20069;-80
2021/12/10 04:27:48;;;;;;;27.52;3.50;;;8.60;99.90;;;;;;4996153;28;20104;-80
2021/12/10 04:30:17;;;;;;;22.98;2.97;;;8.60;99.90;;;;;;5022720;28;20046;-79
2021/12/10 04:32:44;;;;;;;26.15;3.63;;;8.60;99.90;;;;;;5000107;28;20049;-79
2021/12/10 04:35:13;;;;;;;20.00;3.60;;;8.40;99.90;;;;;;4996031;28;20100;-80
2021/12/10 04:37:40;;;;;;;31.38;3.72;;;8.30;99.90;;;;;;4991135;28;20068;-80
2021/12/10 04:40:10;;;;;;;28.70;4.05;;;8.50;99.90;;;;;;5000154;28;20076;-77
2021/12/10 04:42:37;;;;;;;26.65;4.00;;;8.50;99.90;;;;;;4999971;28;20046;-79
2021/12/10 04:45:05;;;;;;;31.08;4.18;;;8.50;99.90;;;;;;5001699;28;20477;-79
2021/12/10 04:47:34;;;;;;;30.52;4.97;;;8.60;99.90;;;;;;5004831;28;20421;-79
2021/12/10 04:50:04;;;;;;;35.00;4.47;;;8.50;99.90;;;;;;4994447;28;20054;-79
2021/12/10 04:52:34;;;;;;;38.55;5.80;;;8.60;99.90;;;;;;4994081;28;20098;-79
2021/12/10 04:55:05;;;;;;;25.88;4.45;;;8.70;99.90;;;;;;5002520;28;20522;-80
2021/12/10 04:57:32;;;;;;;49.00;5.90;;;8.80;99.90;;;;;;5011629;28;20046;-79
2021/12/10 04:59:59;;;;;;;42.90;4.90;;;8.70;99.90;;;;;;5000104;28;20081;-79
2021/12/10 05:02:27;;;;;;;40.95;5.65;;;8.80;99.90;;;;;;5012490;28;20046;-79
2021/12/10 05:04:57;;;;;;;78.32;7.82;;;8.80;99.90;;;;;;5016443;28;20053;-77
2021/12/10 05:07:25;;;;;;;53.35;6.40;;;8.10;99.90;;;;;;5002695;28;20513;-78
2021/12/10 05:09:51;;;;;;;19.17;2.53;;;7.60;99.90;;;;;;4994268;28;20050;-79
2021/12/10 05:12:18;;;;;;;26.20;3.17;;;7.50;99.90;;;;;;4995641;28;20042;-77
2021/12/10 05:14:45;;;;;;;27.92;3.05;;;7.50;99.90;;;;;;5003314;28;20532;-79
2021/12/10 05:17:12;;;;;;;27.02;4.95;;;7.70;99.90;;;;;;5009271;28;20053;-78
2021/12/10 05:19:41;;;;;;;24.45;2.97;;;7.80;99.90;;;;;;5000262;28;20783;-78
2021/12/10 05:22:11;;;;;;;31.73;4.03;;;8.00;99.90;;;;;;5002443;28;20045;-79
2021/12/10 05:24:38;;;;;;;35.67;4.88;;;8.10;99.90;;;;;;4994840;28;20081;-79
2021/12/10 05:27:05;;;;;;;35.72;4.93;;;8.30;99.90;;;;;;4999173;28;20100;-79
2021/12/10 05:29:32;;;;;;;36.80;5.70;;;8.40;99.90;;;;;;4995401;28;20603;-80
2021/12/10 05:31:59;;;;;;;26.15;4.53;;;8.60;99.90;;;;;;5002256;28;20461;-78
2021/12/10 05:34:27;;;;;;;21.02;3.30;;;8.70;99.90;;;;;;5000805;28;20425;-81
2021/12/10 05:36:56;;;;;;;20.95;3.78;;;8.70;99.90;;;;;;5003094;28;20532;-80
2021/12/10 05:39:23;;;;;;;33.10;3.58;;;8.60;99.90;;;;;;5008067;28;20101;-77
2021/12/10 05:41:54;;;;;;;29.48;4.13;;;8.50;99.90;;;;;;4994888;28;20089;-80
2021/12/10 05:44:21;;;;;;;30.05;4.53;;;8.50;99.90;;;;;;5000758;28;20057;-80
2021/12/10 05:46:48;;;;;;;34.10;5.78;;;8.70;99.90;;;;;;4994039;28;20073;-80
2021/12/10 05:49:15;;;;;;;26.33;3.78;;;8.50;99.90;;;;;;4999701;28;20046;-78
2021/12/10 05:51:42;;;;;;;22.27;3.42;;;8.50;99.90;;;;;;4993098;28;20046;-78
2021/12/10 05:54:09;;;;;;;12.90;1.90;;;8.30;99.90;;;;;;4996959;28;20046;-79
2021/12/10 05:56:36;;;;;;;21.38;2.45;;;8.00;99.90;;;;;;5000811;28;20049;-77
2021/12/10 05:59:04;;;;;;;19.55;3.97;;;7.90;99.90;;;;;;5006408;28;20509;-80
2021/12/10 06:01:33;;;;;;;26.00;3.88;;;8.00;99.90;;;;;;5001587;28;20050;-79
2021/12/10 06:04:00;;;;;;;29.23;4.07;;;8.10;99.90;;;;;;4996414;28;20049;-81
2021/12/10 06:06:29;;;;;;;21.85;3.53;;;8.20;99.90;;;;;;4999893;28;20759;-79
2021/12/10 06:08:58;;;;;;;32.78;4.47;;;8.30;99.90;;;;;;4995035;28;20042;-78
2021/12/10 06:11:26;;;;;;;30.95;3.97;;;8.30;99.90;;;;;;4997197;28;20072;-78
2021/12/10 06:13:53;;;;;;;25.08;3.38;;;8.20;99.90;;;;;;4997763;28;20073;-81
2021/12/10 06:16:20;;;;;;;28.85;4.03;;;8.00;99.90;;;;;;5010498;28;20062;-76
2021/12/10 06:18:48;;;;;;;22.38;3.00;;;7.80;99.90;;;;;;5000424;28;20050;-79
2021/12/10 06:21:15;;;;;;;15.77;2.50;;;7.70;99.90;;;;;;4998444;28;20076;-78
2021/12/10 06:23:42;;;;;;;25.33;3.70;;;7.60;99.90;;;;;;5000490;28;20053;-78
2021/12/10 06:26:09;;;;;;;21.83;2.83;;;7.60;99.90;;;;;;5005761;28;20525;-78
2021/12/10 06:28:44;;;;;;;16.48;2.30;;;7.70;99.90;;;;;;5010560;28;20052;-79
2021/12/10 06:31:14;;;;;;;21.80;2.67;;;7.60;99.90;;;;;;5000477;28;20050;-78
2021/12/10 06:33:41;;;;;;;20.60;2.97;;;7.50;99.90;;;;;;5000585;28;20041;-79
2021/12/10 06:36:09;;;;;;;16.70;2.17;;;7.50;99.90;;;;;;5012796;28;20721;-78
2021/12/10 06:38:37;;;;;;;27.67;3.58;;;7.50;99.90;;;;;;5000453;28;20050;-79
2021/12/10 06:41:05;;;;;;;31.15;3.42;;;7.60;99.90;;;;;;5008071;28;20502;-78
2021/12/10 06:43:33;;;;;;;32.30;3.92;;;7.80;99.90;;;;;;5004764;28;20042;-79
2021/12/10 06:46:01;;;;;;;29.15;3.63;;;7.70;99.90;;;;;;5000457;28;20042;-80
2021/12/10 06:48:28;;;;;;;36.33;4.75;;;7.80;99.90;;;;;;5008939;28;20050;-80
2021/12/10 06:51:00;;;;;;;38.50;5.95;;;7.90;99.90;;;;;;5013025;28;20579;-79
2021/12/10 06:53:28;;;;;;;46.60;5.68;;;8.00;99.90;;;;;;5006718;28;20101;-78
2021/12/10 06:55:56;;;;;;;35.63;5.00;;;8.00;99.90;;;;;;4997089;28;20092;-79
2021/12/10 06:58:23;;;;;;;29.52;3.78;;;8.00;99.90;;;;;;4990334;28;20564;-79
2021/12/10 07:00:55;;;;;;;34.50;4.47;;;8.00;99.90;;;;;;5002077;28;20634;-79
2021/12/10 07:03:26;;;;;;;35.05;5.38;;;8.10;99.90;;;;;;4999527;28;20730;-80
2021/12/10 07:05:55;;;;;;;23.98;3.05;;;8.00;99.90;;;;;;4995142;28;20050;-79
2021/12/10 07:08:25;;;;;;;35.70;4.60;;;8.00;99.90;;;;;;4995733;28;20047;-78
2021/12/10 07:10:53;;;;;;;32.03;4.35;;;8.00;99.90;;;;;;5010505;28;20046;-80
2021/12/10 07:13:20;;;;;;;34.00;4.32;;;8.10;99.90;;;;;;4999004;28;20050;-79
2021/12/10 07:15:49;;;;;;;34.40;5.38;;;8.20;99.90;;;;;;4993060;28;20054;-78
2021/12/10 07:18:19;;;;;;;34.83;5.43;;;8.30;99.90;;;;;;4995665;28;20128;-78
2021/12/10 07:20:47;;;;;;;35.03;3.95;;;8.40;99.90;;;;;;4990445;28;20062;-79
2021/12/10 07:23:14;;;;;;;32.47;3.95;;;8.40;99.90;;;;;;4997011;28;20049;-79
2021/12/10 07:25:41;;;;;;;28.80;4.28;;;8.40;99.90;;;;;;4990223;28;20049;-78
2021/12/10 07:28:08;;;;;;;34.00;5.45;;;8.50;99.90;;;;;;4993723;28;20042;-79
2021/12/10 07:30:35;;;;;;;30.08;5.07;;;8.60;99.90;;;;;;5004091;28;20046;-81
2021/12/10 07:33:04;;;;;;;31.80;4.10;;;8.60;99.90;;;;;;5004573;28;20042;-79
2021/12/10 07:35:31;;;;;;;46.65;4.55;;;8.50;99.90;;;;;;5011473;28;20073;-79
2021/12/10 07:37:58;;;;;;;41.83;5.43;;;8.60;99.90;;;;;;4994509;28;20097;-79
2021/12/10 07:40:28;;;;;;;35.47;3.80;;;8.60;99.90;;;;;;4992401;28;20073;-77
2021/12/10 07:42:55;;;;;;;36.28;4.45;;;8.80;99.90;;;;;;4989710;28;20046;-78
2021/12/10 07:45:24;;;;;;;22.23;3.80;;;8.90;99.90;;;;;;4994707;28;20046;-78
2021/12/10 07:47:56;;;;;;;28.45;4.15;;;8.80;99.90;;;;;;4996837;28;20058;-78
2021/12/10 07:50:28;;;;;;;29.27;3.78;;;8.60;99.90;;;;;;4988188;28;20042;-77
2021/12/10 07:52:56;;;;;;;20.50;2.83;;;8.50;99.90;;;;;;4994558;28;20046;-78
2021/12/10 07:55:27;;;;;;;35.35;4.32;;;8.30;99.90;;;;;;4997101;28;20097;-77
2021/12/10 07:57:54;;;;;;;27.52;3.25;;;8.40;99.90;;;;;;4989140;28;20084;-78
2021/12/10 08:00:26;;;;;;;22.80;4.05;;;8.20;99.90;;;;;;5007707;28;20042;-78
2021/12/10 08:02:53;;;;;;;33.90;3.53;;;8.10;99.90;;;;;;4987865;28;20517;-78
2021/12/10 08:05:24;;;;;;;29.52;4.45;;;8.10;99.90;;;;;;4995471;28;20046;-76
2021/12/10 08:07:53;;;;;;;40.90;4.55;;;8.00;99.90;;;;;;4992961;28;20046;-77
2021/12/10 08:10:20;;;;;;;32.88;3.90;;;8.00;99.90;;;;;;4990973;28;20050;-77
2021/12/10 08:12:47;;;;;;;32.75;4.15;;;8.10;99.90;;;;;;4991446;28;20081;-78
2021/12/10 08:15:15;;;;;;;39.30;5.28;;;8.10;99.90;;;;;;4991976;28;20054;-78
2021/12/10 08:17:43;;;;;;;39.65;3.85;;;8.10;99.90;;;;;;4989749;28;20054;-77
2021/12/10 08:20:13;;;;;;;26.60;4.80;;;8.20;99.90;;;;;;5008501;28;20518;-78
2021/12/10 08:22:41;;;;;;;33.75;3.90;;;8.40;99.90;;;;;;4992826;28;21683;-78
2021/12/10 08:25:09;;;;;;;39.33;5.53;;;8.50;99.90;;;;;;4995201;28;20046;-79
2021/12/10 08:27:40;;;;;;;38.30;5.25;;;8.60;99.90;;;;;;4991276;28;20042;-76
2021/12/10 08:30:10;;;;;;;52.13;5.03;;;8.60;99.90;;;;;;4995509;28;20077;-78
2021/12/10 08:32:38;;;;;;;42.05;5.07;;;8.60;99.90;;;;;;4993364;28;20100;-78
2021/12/10 08:35:09;;;;;;;43.63;8.43;;;8.60;99.90;;;;;;4988676;28;20046;-78
2021/12/10 08:37:36;;;;;;;37.30;6.93;;;8.70;99.90;;;;;;5004991;28;20622;-78
2021/12/10 08:40:06;;;;;;;32.97;4.97;;;8.70;99.90;;;;;;4989346;28;20069;-78
2021/12/10 08:42:33;;;;;;;40.22;5.50;;;8.80;99.90;;;;;;5002274;28;20429;-78
2021/12/10 08:45:00;;;;;;;33.08;5.00;;;8.80;99.90;;;;;;5006638;28;20046;-78
2021/12/10 08:47:27;;;;;;;36.72;4.75;;;8.90;99.90;;;;;;4996702;28;20049;-78
2021/12/10 08:49:54;;;;;;;33.97;5.32;;;9.00;99.90;;;;;;4989857;28;20813;-78
2021/12/10 08:52:21;;;;;;;35.20;4.95;;;9.00;99.90;;;;;;4992152;28;20054;-79
2021/12/10 08:54:48;;;;;;;47.85;6.03;;;9.10;99.90;;;;;;4992643;28;20057;-78
2021/12/10 08:57:16;;;;;;;30.02;5.05;;;9.10;99.90;;;;;;4988686;28;20679;-78
2021/12/10 08:59:43;;;;;;;38.55;4.57;;;9.00;99.90;;;;;;4994097;28;20912;-78
2021/12/10 09:02:13;;;;;;;37.80;4.97;;;9.00;99.90;;;;;;4993866;28;20132;-78
2021/12/10 09:04:41;;;;;;;33.92;5.05;;;9.10;99.90;;;;;;4990952;28;20073;-78
2021/12/10 09:07:14;;;;;;;30.42;4.68;;;9.20;99.90;;;;;;4996286;28;20050;-79
2021/12/10 09:09:43;;;;;;;39.92;5.53;;;9.20;99.90;;;;;;4990293;28;20042;-79
2021/12/10 09:12:14;;;;;;;27.45;3.92;;;9.20;99.90;;;;;;4995684;28;20054;-79
2021/12/10 09:14:46;;;;;;;33.70;4.68;;;9.10;99.90;;;;;;4996250;28;20104;-77
2021/12/10 09:17:20;;;;;;;28.48;3.45;;;8.80;99.90;;;;;;4996508;28;20058;-80
2021/12/10 09:19:52;;;;;;;;;;;8.60;99.90;;;;;;4997141;28;20038;-79
2021/12/10 09:22:20;;;;;;;26.27;3.97;;;8.60;99.90;;;;;;4997926;28;19972;-78
2021/12/10 09:24:48;;;;;;;22.50;3.78;;;8.70;99.90;;;;;;5010468;28;20050;-79
2021/12/10 09:27:15;;;;;;;33.75;3.95;;;8.80;99.90;;;;;;4996249;28;20576;-78
2021/12/10 09:29:45;;;;;;;23.38;2.67;;;8.70;99.90;;;;;;4998582;28;20073;-79
2021/12/10 09:32:16;;;;;;;28.23;4.45;;;8.70;99.90;;;;;;4993534;28;20619;-79
2021/12/10 09:34:44;;;;;;;26.63;3.10;;;8.70;99.90;;;;;;4998176;28;20039;-78
2021/12/10 09:37:11;;;;;;;29.42;4.85;;;8.70;99.90;;;;;;4997278;28;20514;-78
2021/12/10 09:39:39;;;;;;;31.73;4.22;;;8.70;99.90;;;;;;4998101;28;20042;-79
2021/12/10 09:42:07;;;;;;;35.83;4.38;;;8.80;99.90;;;;;;4996472;28;20077;-79
2021/12/10 09:44:36;;;;;;;17.92;3.28;;;8.80;99.90;;;;;;4999135;28;20038;-75
2021/12/10 09:47:04;;;;;;;27.30;4.00;;;8.90;99.90;;;;;;4994777;28;20112;-79
2021/12/10 09:49:31;;;;;;;37.88;5.18;;;9.10;99.90;;;;;;5001136;28;20046;-77
2021/12/10 09:52:04;;;;;;;25.23;4.10;;;9.20;99.90;;;;;;5001796;28;20049;-78
2021/12/10 09:54:33;;;;;;;30.38;4.13;;;9.10;99.90;;;;;;4994742;28;20084;-78
2021/12/10 09:57:05;;;;;;;32.60;4.93;;;9.00;99.90;;;;;;5010199;28;20563;-79
2021/12/10 09:59:33;;;;;;;44.38;5.53;;;8.90;99.90;;;;;;4994190;28;20046;-78
2021/12/10 10:02:03;;;;;;;31.70;4.30;;;8.90;99.90;;;;;;5026255;28;20050;-79
2021/12/10 10:04:35;;;;;;;40.00;5.22;;;9.00;99.90;;;;;;5002101;28;20066;-78
2021/12/10 10:07:10;;;;;;;30.63;3.97;;;9.10;99.90;;;;;;5000880;28;20092;-79
2021/12/10 10:09:38;;;;;;;29.02;3.38;;;9.20;99.90;;;;;;4997736;28;20521;-79
2021/12/10 10:12:13;;;;;;;27.02;4.32;;;9.20;99.90;;;;;;4998407;28;20089;-79
2021/12/10 10:14:40;;;;;;;30.65;4.07;;;9.20;99.90;;;;;;4993120;28;20046;-79
2021/12/10 10:17:09;;;;;;;41.25;5.22;;;9.20;99.90;;;;;;4998836;28;20855;-79
2021/12/10 10:19:37;;;;;;;29.10;4.10;;;9.30;99.90;;;;;;5001857;28;20085;-78
2021/12/10 10:22:08;;;;;;;48.22;6.22;;;9.30;99.90;;;;;;4997707;28;20058;-81
2021/12/10 10:24:35;;;;;;;30.67;5.10;;;9.40;99.90;;;;;;4995586;28;20038;-81
2021/12/10 10:27:10;;;;;;;34.15;5.53;;;9.40;99.90;;;;;;4997686;28;20073;-79
2021/12/10 10:29:41;;;;;;;28.90;4.85;;;9.50;99.90;;;;;;4996353;28;20100;-79
2021/12/10 10:32:15;;;;;;;23.63;4.30;;;9.50;99.90;;;;;;4997440;28;20057;-79
2021/12/10 10:34:46;;;;;;;37.50;4.75;;;9.50;99.90;;;;;;4997153;28;20108;-79
2021/12/10 10:37:14;;;;;;;27.38;3.85;;;9.50;99.90;;;;;;4994286;28;20104;-78
2021/12/10 10:39:43;;;;;;;27.30;4.68;;;9.50;99.90;;;;;;5000610;28;20060;-78
2021/12/10 10:42:16;;;;;;;27.02;4.72;;;9.60;99.90;;;;;;4999721;28;20056;-79
2021/12/10 10:44:57;;;;;;;25.13;4.00;;;9.70;99.90;;;;;;4992969;28;20481;-80
2021/12/10 10:47:24;;;;;;;27.45;4.25;;;9.70;99.90;;;;;;4999796;28;20077;-79
2021/12/10 10:50:18;;;;;;;32.00;4.45;;;9.70;99.90;;;;;;4998857;28;20053;-85
2021/12/10 10:52:57;;;;;;;24.05;3.95;;;9.60;99.90;;;;;;4997465;28;20051;-81
2021/12/10 10:55:26;;;;;;;35.60;3.92;;;9.00;99.90;;;;;;4996807;28;20514;-80
2021/12/10 10:58:13;;;;;;;34.05;4.38;;;8.50;99.90;;;;;;5007032;28;20050;-81
2021/12/10 11:01:10;;;;;;;22.58;3.20;;;8.40;99.90;;;;;;4997825;28;20049;-80
2021/12/10 11:03:53;;;;;;;33.83;4.03;;;8.50;99.90;;;;;;5011421;28;20050;-78
2021/12/10 11:06:36;;;;;;;27.42;4.55;;;8.80;99.90;;;;;;5000163;28;20045;-81
2021/12/10 11:09:13;;;;;;;35.95;4.10;;;8.90;99.90;;;;;;4999538;28;20037;-80
2021/12/10 11:11:49;;;;;;;24.02;3.60;;;9.00;99.90;;;;;;4996582;28;20694;-80
2021/12/10 11:14:21;;;;;;;25.48;4.40;;;9.10;99.90;;;;;;4999972;28;20042;-79
2021/12/10 11:16:51;;;;;;;31.42;4.68;;;9.20;99.90;;;;;;4999071;28;20058;-81
2021/12/10 11:19:23;;;;;;;28.17;4.55;;;9.30;99.90;;;;;;5002132;28;20077;-78
2021/12/10 11:22:01;;;;;;;30.08;5.03;;;9.40;99.90;;;;;;4998329;28;20050;-79
2021/12/10 11:24:44;;;;;;;34.35;4.72;;;9.40;99.90;;;;;;4996647;28;20066;-79
2021/12/10 11:27:22;;;;;;;39.95;4.38;;;9.30;99.90;;;;;;4982027;28;20061;-79
2021/12/10 11:30:02;;;;;;;22.33;3.55;;;9.30;99.90;;;;;;4995681;28;20058;-80
2021/12/10 11:32:38;;;;;;;25.40;3.78;;;9.40;99.90;;;;;;5003392;28;20107;-79
2021/12/10 11:35:17;;;;;;;29.17;5.45;;;9.50;99.90;;;;;;4998307;28;20081;-81
2021/12/10 11:37:56;;;;;;;26.98;3.67;;;9.60;99.90;;;;;;5015647;28;20053;-79
2021/12/10 11:40:41;;;;;;;24.23;3.63;;;9.60;99.90;;;;;;5007826;28;20050;-78
2021/12/10 11:46:26;;;;;;;34.20;3.85;;;9.40;99.90;;;;;;5012857;28;20085;-78
2021/12/10 11:49:01;;;;;;;29.23;4.93;;;9.30;99.90;;;;;;5008944;28;20050;-82
2021/12/10 11:51:32;;;;;;;31.60;5.00;;;9.20;99.90;;;;;;4997619;28;20046;-79
2021/12/10 11:54:07;;;;;;;32.38;3.88;;;9.20;99.90;;;;;;4993623;28;20054;-80
2021/12/10 11:56:40;;;;;;;26.23;4.07;;;9.20;99.90;;;;;;4999115;28;20077;-78
2021/12/10 11:59:12;;;;;;;27.85;3.67;;;9.30;99.90;;;;;;4995486;28;20508;-78
2021/12/10 12:02:03;;;;;;;31.45;3.40;;;9.30;99.90;;;;;;4995489;28;20096;-79
2021/12/10 12:04:53;;;;;;;22.17;3.70;;;9.40;99.90;;;;;;4998477;28;20425;-79
2021/12/10 12:07:40;;;;;;;20.20;3.45;;;9.50;99.90;;;;;;5010247;28;20050;-79
2021/12/10 12:10:22;;;;;;;21.77;3.03;;;9.40;99.90;;;;;;5008818;28;20681;-80
2021/12/10 12:12:54;;;;;;;21.58;3.80;;;9.50;99.90;;;;;;5000757;28;20426;-78
2021/12/10 12:15:28;;;;;;;25.13;3.40;;;9.50;99.90;;;;;;4996664;28;20049;-78
2021/12/10 12:18:02;;;;;;;28.35;3.38;;;9.60;99.90;;;;;;4995656;28;20054;-77
2021/12/10 12:20:52;;;;;;;40.78;4.47;;;9.80;99.90;;;;;;5000325;28;20607;-78
2021/12/10 12:26:28;;;;;;;21.05;3.33;;;9.90;99.90;;;;;;5013685;28;20053;-79
2021/12/10 12:29:16;;;;;;;22.20;2.75;;;9.70;99.90;;;;;;5007411;28;20106;-79
2021/12/10 12:31:47;;;;;;;28.17;4.60;;;9.50;99.90;;;;;;5001392;28;20046;-81
2021/12/10 12:34:20;;;;;;;18.13;2.65;;;9.60;99.90;;;;;;5007963;28;20057;-79
2021/12/10 12:36:50;;;;;;;32.13;4.07;;;9.60;99.90;;;;;;4997707;28;20037;-82
2021/12/10 12:39:44;;;;;;;23.98;3.35;;;9.60;99.90;;;;;;5017801;28;20469;-79
2021/12/10 12:42:26;;;;;;;28.02;3.65;;;9.60;99.90;;;;;;4989680;28;20469;-81
2021/12/10 12:45:01;;;;;;;22.23;3.40;;;9.60;99.90;;;;;;5022313;28;20061;-79
2021/12/10 12:47:54;;;;;;;22.60;3.72;;;9.60;99.90;;;;;;5007307;28;20073;-78
2021/12/10 12:50:43;;;;;;;22.42;3.03;;;9.60;99.90;;;;;;5019183;28;20110;-80
2021/12/10 12:53:20;;;;;;;23.85;3.90;;;9.60;99.90;;;;;;4989153;28;20054;-79
2021/12/10 12:56:00;;;;;;;25.85;4.00;;;9.60;99.90;;;;;;5014707;28;20100;-77
2021/12/10 12:59:00;;;;;;;21.45;3.03;;;9.60;99.90;;;;;;4995795;28;20129;-77
2021/12/10 13:01:44;;;;;;;31.33;3.72;;;9.60;99.90;;;;;;5010099;28;20077;-80
2021/12/10 13:04:17;;;;;;;15.73;3.00;;;9.70;99.90;;;;;;5010560;28;20042;-81
2021/12/10 13:07:12;;;;;;;15.80;2.45;;;9.70;99.90;;;;;;4996593;28;20045;-80
2021/12/10 13:09:47;;;;;;;16.92;2.67;;;9.70;99.90;;;;;;4988067;28;20041;-78
2021/12/10 13:15:26;;;;;;;15.15;2.97;;;9.90;99.90;;;;;;5012141;28;20045;-79
2021/12/10 13:17:59;;;;;;;35.40;3.70;;;9.90;99.90;;;;;;5005605;28;20058;-80
2021/12/10 13:20:32;;;;;;;21.55;3.63;;;9.90;99.90;;;;;;4988565;28;20050;-77
2021/12/10 13:23:04;;;;;;;16.58;3.28;;;9.80;99.90;;;;;;5004745;28;20123;-78
2021/12/10 13:25:33;;;;;;;20.83;3.33;;;9.70;99.90;;;;;;5000943;28;20046;-78
2021/12/10 13:28:02;;;;;;;25.02;3.50;;;9.70;99.90;;;;;;4997700;28;20100;-78
2021/12/10 13:30:41;;;;;;;18.83;3.38;;;9.90;99.90;;;;;;4995705;28;20073;-79